createdAt,value
2019-04-21T00:00:37.614Z,69.65
2019-04-21T00:01:41.971Z,68.93
2019-04-21T00:02:40.949Z,68.27
2019-04-21T00:03:45.616Z,67.66
2019-04-21T00:04:54.346Z,67.03
2019-04-21T00:05:58.645Z,67.14
2019-04-21T00:06:56.927Z,67.97
2019-04-21T00:08:01.596Z,67.45
2019-04-21T00:09:02.706Z,68.27
2019-04-21T00:09:59.563Z,68.17
2019-04-21T00:11:02.869Z,68.59
2019-04-21T00:11:55.388Z,67.55
2019-04-21T00:12:52.290Z,67.35
2019-04-21T00:13:52.549Z,67.45
2019-04-21T00:14:50.996Z,67.66
2019-04-21T00:15:44.485Z,67.55
2019-04-21T00:16:44.324Z,68.07
2019-04-21T00:17:38.970Z,67.45
2019-04-21T00:18:44.623Z,67.97
2019-04-21T00:19:39.072Z,68.17
2019-04-21T00:20:44.201Z,68.07
2019-04-21T00:21:45.019Z,68.30
2019-04-21T00:22:48.078Z,68.41
2019-04-21T00:23:55.348Z,68.27
2019-04-21T00:24:49.740Z,68.17
2019-04-21T00:25:48.775Z,68.00
2019-04-21T00:26:57.499Z,68.17
2019-04-21T00:27:51.698Z,68.51
2019-04-21T00:29:07.286Z,68.10
2019-04-21T00:29:58.781Z,69.03
2019-04-21T00:30:57.350Z,69.34
2019-04-21T00:31:52.636Z,69.75
2019-04-21T00:32:50.920Z,69.48
2019-04-21T00:33:41.270Z,69.78
2019-04-21T00:34:41.095Z,69.99
2019-04-21T00:35:45.386Z,70.54
2019-04-21T00:36:47.296Z,70.75
2019-04-21T00:37:53.411Z,71.06
2019-04-21T00:39:09.975Z,71.06
2019-04-21T00:40:00.046Z,71.81
2019-04-21T00:41:01.628Z,72.19
2019-04-21T00:41:59.197Z,72.02
2019-04-21T00:42:55.862Z,71.98
2019-04-21T00:43:51.916Z,72.53
2019-04-21T00:44:56.588Z,72.12
2019-04-21T00:45:48.082Z,72.74
2019-04-21T00:46:51.314Z,73.71
2019-04-21T00:48:00.909Z,74.33
2019-04-21T00:48:57.410Z,74.36
2019-04-21T00:50:02.028Z,74.67
2019-04-21T00:51:10.933Z,74.36
2019-04-21T00:52:14.420Z,75.95
2019-04-21T00:53:00.439Z,75.63
2019-04-21T00:54:04.166Z,75.53
2019-04-21T00:55:12.276Z,76.26
2019-04-21T00:56:03.376Z,75.63
2019-04-21T00:57:03.675Z,76.15
2019-04-21T00:58:08.373Z,76.26
2019-04-21T00:58:59.539Z,75.84
2019-04-21T01:00:01.212Z,76.09
2019-04-21T01:00:58.095Z,76.46
2019-04-21T01:01:55.230Z,75.98
2019-04-21T01:03:14.749Z,75.63
2019-04-21T01:03:58.462Z,75.74
2019-04-21T01:05:57.598Z,76.05
2019-04-21T01:07:01.619Z,75.95
2019-04-21T01:07:57.932Z,75.84
2019-04-21T01:09:00.929Z,76.15
2019-04-21T01:09:48.842Z,76.05
2019-04-21T01:10:49.927Z,75.84
2019-04-21T01:12:05.198Z,75.95
2019-04-21T01:12:58.437Z,76.26
2019-04-21T01:13:57.982Z,75.95
2019-04-21T01:15:04.216Z,76.26
2019-04-21T01:15:59.206Z,75.57
2019-04-21T01:16:59.087Z,76.29
2019-04-21T01:18:01.472Z,76.50
2019-04-21T01:18:54.776Z,76.40
2019-04-21T01:19:52.306Z,76.19
2019-04-21T01:20:36.734Z,76.61
2019-04-21T01:21:35.778Z,76.50
2019-04-21T01:22:35.792Z,76.50
2019-04-21T01:23:35.860Z,76.61
2019-04-21T01:24:40.207Z,76.29
2019-04-21T01:25:44.109Z,76.61
2019-04-21T01:26:47.089Z,76.09
2019-04-21T01:28:02.253Z,76.53
2019-04-21T01:28:56.878Z,76.95
2019-04-21T01:29:59.716Z,76.84
2019-04-21T01:30:56.889Z,76.84
2019-04-21T01:31:57.293Z,77.36
2019-04-21T01:33:03.583Z,77.05
2019-04-21T01:33:57.482Z,76.64
2019-04-21T01:34:57.634Z,77.36
2019-04-21T01:35:55.300Z,76.95
2019-04-21T01:36:54.789Z,77.15
2019-04-21T01:37:57.156Z,77.67
2019-04-21T01:39:02.150Z,77.67
2019-04-21T01:40:04.108Z,77.98
2019-04-21T01:40:59.163Z,77.88
2019-04-21T01:41:58.796Z,78.40
2019-04-21T01:43:01.134Z,78.30
2019-04-21T01:43:57.813Z,78.71
2019-04-21T01:44:58.277Z,78.75
2019-04-21T01:45:53.562Z,78.02
2019-04-21T01:46:51.882Z,77.92
2019-04-21T01:47:56.804Z,78.54
2019-04-21T01:48:52.527Z,78.64
2019-04-21T01:49:49.147Z,78.75
2019-04-21T01:50:56.812Z,79.06
2019-04-21T01:52:10.811Z,78.54
2019-04-21T01:52:57.368Z,78.12
2019-04-21T01:53:55.056Z,78.19
2019-04-21T01:55:04.904Z,77.78
2019-04-21T01:55:54.175Z,77.88
2019-04-21T01:56:55.712Z,77.36
2019-04-21T01:57:55.305Z,76.91
2019-04-21T01:58:46.291Z,76.40
2019-04-21T01:59:51.182Z,76.40
2019-04-21T02:00:51.947Z,76.50
2019-04-21T02:02:02.317Z,75.84
2019-04-21T02:03:04.292Z,75.63
2019-04-21T02:04:00.021Z,76.67
2019-04-21T02:05:04.015Z,76.46
2019-04-21T02:06:07.642Z,75.84
2019-04-21T02:07:01.330Z,75.84
2019-04-21T02:07:55.204Z,75.78
2019-04-21T02:08:56.352Z,75.98
2019-04-21T02:10:00.839Z,75.98
2019-04-21T02:11:03.390Z,76.61
2019-04-21T02:12:05.841Z,76.40
2019-04-21T02:12:56.698Z,76.71
2019-04-21T02:14:05.424Z,76.40
2019-04-21T02:15:06.587Z,75.98
2019-04-21T02:16:05.476Z,75.98
2019-04-21T02:16:59.646Z,76.09
2019-04-21T02:17:59.510Z,76.36
2019-04-21T02:18:54.617Z,76.26
2019-04-21T02:20:47.584Z,76.15
2019-04-21T02:21:47.511Z,76.19
2019-04-21T02:23:10.395Z,76.19
2019-04-21T02:23:59.861Z,76.40
2019-04-21T02:25:02.863Z,76.09
2019-04-21T02:25:51.029Z,76.19
2019-04-21T02:26:59.235Z,77.26
2019-04-21T02:28:01.255Z,78.30
2019-04-21T02:29:01.836Z,78.64
2019-04-21T02:30:02.720Z,78.02
2019-04-21T02:31:18.154Z,78.12
2019-04-21T02:34:13.486Z,78.58
2019-04-21T02:37:38.369Z,79.20
2019-04-21T02:38:13.232Z,79.51
2019-04-21T02:39:23.162Z,79.61
2019-04-21T02:40:22.297Z,79.30
2019-04-21T02:41:11.239Z,78.89
2019-04-21T02:42:02.051Z,78.54
2019-04-21T02:44:12.421Z,78.68
2019-04-21T02:45:12.382Z,78.68
2019-04-21T02:46:54.548Z,78.58
2019-04-21T02:48:08.867Z,78.68
2019-04-21T02:50:10.063Z,78.78
2019-04-21T02:52:18.226Z,79.30
2019-04-21T02:53:16.357Z,79.75
2019-04-21T02:55:11.307Z,79.55
2019-04-21T02:56:14.496Z,80.06
2019-04-21T02:57:09.223Z,80.68
2019-04-21T02:58:09.761Z,80.68
2019-04-21T02:59:10.112Z,80.37
2019-04-21T03:00:13.846Z,80.44
2019-04-21T03:01:15.990Z,79.61
2019-04-21T03:02:25.073Z,79.41
2019-04-21T03:03:04.686Z,79.65
2019-04-21T03:04:11.216Z,79.51
2019-04-21T03:05:14.832Z,79.30
2019-04-21T03:06:10.522Z,78.96
2019-04-21T03:08:08.477Z,78.44
2019-04-21T03:09:09.173Z,78.64
2019-04-21T03:11:09.064Z,78.12
2019-04-21T03:14:31.219Z,78.54
2019-04-21T03:15:21.892Z,78.75
2019-04-21T03:16:23.409Z,78.85
2019-04-21T03:17:09.651Z,78.75
2019-04-21T03:19:08.817Z,78.37
2019-04-21T03:20:07.194Z,78.58
2019-04-21T03:21:10.851Z,79.06
2019-04-21T03:24:05.292Z,79.85
2019-04-21T03:26:10.182Z,79.96
2019-04-21T03:27:32.831Z,80.68
2019-04-21T03:28:11.709Z,80.99
2019-04-21T03:29:12.550Z,80.79
2019-04-21T03:30:17.023Z,80.58
2019-04-21T03:32:54.213Z,80.06
2019-04-21T03:36:38.007Z,80.02
2019-04-21T03:37:14.053Z,80.58
2019-04-21T03:39:01.166Z,80.37
2019-04-21T03:40:08.084Z,80.99
2019-04-21T03:41:04.031Z,81.04
2019-04-21T03:43:04.945Z,81.24
2019-04-21T03:44:08.062Z,81.76
2019-04-21T03:45:20.552Z,82.39
2019-04-21T03:46:28.230Z,81.66
2019-04-21T03:47:06.902Z,81.20
2019-04-21T03:49:12.648Z,80.13
2019-04-21T03:51:07.285Z,79.71
2019-04-21T03:52:11.932Z,79.96
2019-04-21T03:53:20.298Z,79.96
2019-04-21T03:54:07.922Z,80.06
2019-04-21T03:55:25.226Z,79.65
2019-04-21T03:56:00.608Z,80.58
2019-04-21T03:59:09.964Z,80.58
2019-04-21T04:00:11.008Z,80.06
2019-04-21T04:01:06.027Z,79.85
2019-04-21T04:02:05.872Z,79.85
2019-04-21T04:03:23.712Z,79.51
2019-04-21T04:04:16.071Z,79.24
2019-04-21T04:05:11.063Z,79.55
2019-04-21T04:06:11.485Z,80.02
2019-04-21T04:08:09.439Z,79.51
2019-04-21T04:10:08.273Z,79.71
2019-04-21T04:11:14.365Z,79.61
2019-04-21T04:13:05.550Z,78.64
2019-04-21T04:14:14.143Z,79.20
2019-04-21T04:15:08.679Z,79.61
2019-04-21T04:16:05.952Z,79.75
2019-04-21T04:17:17.783Z,79.96
2019-04-21T04:18:04.230Z,80.47
2019-04-21T04:19:26.463Z,80.99
2019-04-21T04:20:08.984Z,81.51
2019-04-21T04:21:12.674Z,81.62
2019-04-21T04:22:14.730Z,81.72
2019-04-21T04:23:08.162Z,81.20
2019-04-21T04:24:09.007Z,81.76
2019-04-21T04:25:07.363Z,81.24
2019-04-21T04:26:07.415Z,81.14
2019-04-21T04:27:12.087Z,81.45
2019-04-21T04:28:14.111Z,82.18
2019-04-21T04:29:20.020Z,82.70
2019-04-21T04:30:20.171Z,82.49
2019-04-21T04:31:22.278Z,82.76
2019-04-21T04:33:07.976Z,82.24
2019-04-21T04:34:20.048Z,82.24
2019-04-21T04:35:10.331Z,82.24
2019-04-21T04:38:07.139Z,82.55
2019-04-21T04:39:14.177Z,82.65
2019-04-21T04:40:10.532Z,82.65
2019-04-21T04:41:15.364Z,82.24
2019-04-21T04:42:18.225Z,82.24
2019-04-21T04:43:13.170Z,82.55
2019-04-21T04:44:13.693Z,82.24
2019-04-21T04:46:09.596Z,82.24
2019-04-21T04:47:10.404Z,82.14
2019-04-21T04:48:05.536Z,82.24
2019-04-21T04:49:11.469Z,82.20
2019-04-21T04:50:26.296Z,82.10
2019-04-21T04:51:25.104Z,81.68
2019-04-21T04:52:19.287Z,81.27
2019-04-21T04:53:01.883Z,81.48
2019-04-21T04:54:03.856Z,81.48
2019-04-21T04:55:06.779Z,81.65
2019-04-21T04:56:03.845Z,81.02
2019-04-21T04:57:18.267Z,80.92
2019-04-21T04:58:23.451Z,79.99
2019-04-21T05:00:15.357Z,80.36
2019-04-21T05:01:14.202Z,80.36
2019-04-21T05:02:14.943Z,80.26
2019-04-21T05:03:01.415Z,80.47
2019-04-21T05:06:12.002Z,80.33
2019-04-21T05:07:11.842Z,80.33
2019-04-21T05:08:14.951Z,79.71
2019-04-21T05:09:10.863Z,79.50
2019-04-21T05:09:59.784Z,79.57
2019-04-21T05:11:07.763Z,79.50
2019-04-21T05:12:03.587Z,79.40
2019-04-21T05:12:56.945Z,78.95
2019-04-21T05:14:13.364Z,78.95
2019-04-21T05:15:12.741Z,78.50
2019-04-21T05:16:02.510Z,76.39
2019-04-21T05:17:02.260Z,73.26
2019-04-21T05:18:22.428Z,69.84
2019-04-21T05:20:08.634Z,64.38
2019-04-21T05:21:16.070Z,62.07
2019-04-21T05:22:04.987Z,60.44
2019-04-21T05:22:59.752Z,58.86
2019-04-21T05:23:46.968Z,56.45
2019-04-21T05:24:53.820Z,56.23
2019-04-21T05:25:51.137Z,55.18
2019-04-21T05:26:50.255Z,55.02
2019-04-21T05:27:47.248Z,53.04
2019-04-21T05:28:47.322Z,52.02
2019-04-21T05:29:58.696Z,51.79
2019-04-21T05:30:55.340Z,51.59
2019-04-21T05:31:56.397Z,50.85
2019-04-21T05:33:00.303Z,50.01
2019-04-21T05:33:57.667Z,49.79
2019-04-21T05:34:56.996Z,49.33
2019-04-21T05:35:55.484Z,49.21
2019-04-21T05:36:56.769Z,47.67
2019-04-21T05:37:58.639Z,46.94
2019-04-21T05:38:53.449Z,47.72
2019-04-21T05:39:51.207Z,46.30
2019-04-21T05:40:48.291Z,46.02
2019-04-21T05:41:43.036Z,46.33
2019-04-21T05:42:52.962Z,46.71
2019-04-21T05:44:01.612Z,46.99
2019-04-21T05:45:05.011Z,44.74
2019-04-21T05:45:59.687Z,45.53
2019-04-21T05:47:07.835Z,44.21
2019-04-21T05:48:10.135Z,45.08
2019-04-21T05:48:54.772Z,42.43
2019-04-21T05:49:49.907Z,42.54
2019-04-21T05:50:54.057Z,42.41
2019-04-21T05:51:54.969Z,42.76
2019-04-21T05:52:53.523Z,43.34
2019-04-21T05:54:04.895Z,43.04
2019-04-21T05:55:07.603Z,43.14
2019-04-21T05:55:58.634Z,42.54
2019-04-21T05:56:55.506Z,43.37
2019-04-21T05:58:01.291Z,42.76
2019-04-21T05:58:58.139Z,44.58
2019-04-21T05:59:53.130Z,42.60
2019-04-21T06:02:06.169Z,40.72
2019-04-21T06:02:59.222Z,40.28
2019-04-21T06:03:57.684Z,42.90
2019-04-21T06:05:05.571Z,42.66
2019-04-21T06:06:00.473Z,40.94
2019-04-21T06:06:58.013Z,40.22
2019-04-21T06:07:52.679Z,40.44
2019-04-21T06:08:53.879Z,40.94
2019-04-21T06:10:06.919Z,41.83
2019-04-21T06:11:14.848Z,40.18
2019-04-21T06:11:59.823Z,39.96
2019-04-21T06:13:02.365Z,39.98
2019-04-21T06:15:02.694Z,40.44
2019-04-21T06:16:01.078Z,39.92
2019-04-21T06:16:59.706Z,39.70
2019-04-21T06:17:58.227Z,39.58
2019-04-21T06:19:00.723Z,39.86
2019-04-21T06:21:01.353Z,35.55
2019-04-21T06:21:51.171Z,37.39
2019-04-21T06:22:56.531Z,35.36
2019-04-21T06:23:51.506Z,34.98
2019-04-21T06:25:24.329Z,34.98
2019-04-21T06:26:08.775Z,35.90
2019-04-21T06:27:59.001Z,35.57
2019-04-21T06:29:13.495Z,35.55
2019-04-21T06:31:05.880Z,34.28
2019-04-21T06:32:56.731Z,33.67
2019-04-21T06:34:11.220Z,34.21
2019-04-21T06:36:57.081Z,35.50
2019-04-21T06:37:56.999Z,35.82
2019-04-21T06:39:04.725Z,36.76
2019-04-21T06:40:09.292Z,37.46
2019-04-21T06:40:56.431Z,37.04
2019-04-21T06:41:57.133Z,36.24
2019-04-21T06:43:08.218Z,35.31
2019-04-21T06:44:13.035Z,38.47
2019-04-21T06:44:57.621Z,37.73
2019-04-21T06:45:53.996Z,35.36
2019-04-21T06:46:48.933Z,35.19
2019-04-21T06:47:59.511Z,36.97
2019-04-21T06:49:00.184Z,35.31
2019-04-21T06:49:53.725Z,34.54
2019-04-21T06:50:59.365Z,35.80
2019-04-21T06:51:54.584Z,36.58
2019-04-21T06:53:01.008Z,35.44
2019-04-21T06:54:03.557Z,34.81
2019-04-21T06:54:57.162Z,35.41
2019-04-21T06:55:52.519Z,34.17
2019-04-21T06:56:51.567Z,33.98
2019-04-21T06:57:51.639Z,32.57
2019-04-21T06:58:57.921Z,35.36
2019-04-21T06:59:53.655Z,35.14
2019-04-21T07:00:56.218Z,34.51
2019-04-21T07:01:59.782Z,34.83
2019-04-21T07:03:04.725Z,35.30
2019-04-21T07:04:09.835Z,33.99
2019-04-21T07:04:56.081Z,34.29
2019-04-21T07:05:57.276Z,34.09
2019-04-21T07:06:53.697Z,33.19
2019-04-21T07:08:08.860Z,33.61
2019-04-21T07:09:04.380Z,33.71
2019-04-21T07:09:58.103Z,33.17
2019-04-21T07:10:56.747Z,32.74
2019-04-21T07:11:52.656Z,32.43
2019-04-21T07:12:51.626Z,32.71
2019-04-21T07:14:05.672Z,31.82
2019-04-21T07:14:54.715Z,32.14
2019-04-21T07:15:56.832Z,32.79
2019-04-21T07:16:59.532Z,34.59
2019-04-21T07:18:00.164Z,34.16
2019-04-21T07:19:00.038Z,32.73
2019-04-21T07:19:55.407Z,32.59
2019-04-21T07:20:53.274Z,33.00
2019-04-21T07:21:52.543Z,32.18
2019-04-21T07:22:56.827Z,32.28
2019-04-21T07:23:58.954Z,31.98
2019-04-21T07:25:00.336Z,32.76
2019-04-21T07:25:53.141Z,31.65
2019-04-21T07:26:58.469Z,32.03
2019-04-21T07:27:58.039Z,32.32
2019-04-21T07:29:02.931Z,34.94
2019-04-21T07:30:02.532Z,33.56
2019-04-21T07:31:00.568Z,34.26
2019-04-21T07:31:59.289Z,35.68
2019-04-21T07:33:06.387Z,36.49
2019-04-21T07:34:01.614Z,37.03
2019-04-21T07:35:03.614Z,39.79
2019-04-21T07:35:56.882Z,39.09
2019-04-21T07:36:56.152Z,38.49
2019-04-21T07:37:54.787Z,38.94
2019-04-21T07:38:51.438Z,39.14
2019-04-21T07:39:52.812Z,39.83
2019-04-21T07:40:45.555Z,39.99
2019-04-21T07:41:48.536Z,39.01
2019-04-21T07:42:49.814Z,39.54
2019-04-21T07:43:49.589Z,40.35
2019-04-21T07:44:46.094Z,37.98
2019-04-21T07:45:51.584Z,36.83
2019-04-21T07:46:46.949Z,34.89
2019-04-21T07:47:53.105Z,35.51
2019-04-21T07:48:49.750Z,36.07
2019-04-21T07:49:57.495Z,39.88
2019-04-21T07:50:54.385Z,39.06
2019-04-21T07:51:56.415Z,39.53
2019-04-21T07:53:05.063Z,38.79
2019-04-21T07:54:11.735Z,35.43
2019-04-21T07:54:59.660Z,35.19
2019-04-21T07:55:34.236Z,34.38
2019-04-21T07:56:36.228Z,34.26
2019-04-21T07:57:45.600Z,34.46
2019-04-21T07:58:58.776Z,35.06
2019-04-21T08:00:56.301Z,32.52
2019-04-21T08:01:55.029Z,32.53
2019-04-21T08:02:54.023Z,32.42
2019-04-21T08:03:58.150Z,31.62
2019-04-21T08:06:20.739Z,32.50
2019-04-21T08:06:51.618Z,32.80
2019-04-21T08:07:57.991Z,33.22
2019-04-21T08:08:52.901Z,33.31
2019-04-21T08:10:52.279Z,33.40
2019-04-21T08:11:50.041Z,32.40
2019-04-21T08:12:47.767Z,33.51
2019-04-21T08:13:55.157Z,34.33
2019-04-21T08:14:50.821Z,34.91
2019-04-21T08:15:50.985Z,32.52
2019-04-21T08:17:56.646Z,34.96
2019-04-21T08:18:52.158Z,34.76
2019-04-21T08:19:49.718Z,34.05
2019-04-21T08:20:47.990Z,34.33
2019-04-21T08:22:03.847Z,34.33
2019-04-21T08:22:51.810Z,33.50
2019-04-21T08:23:48.142Z,32.60
2019-04-21T08:24:49.174Z,32.70
2019-04-21T08:26:01.150Z,33.20
2019-04-21T08:26:51.567Z,32.48
2019-04-21T08:27:55.570Z,33.38
2019-04-21T08:28:53.741Z,30.98
2019-04-21T08:29:54.460Z,31.27
2019-04-21T08:30:47.848Z,30.38
2019-04-21T08:32:00.870Z,30.88
2019-04-21T08:33:00.822Z,30.88
2019-04-21T08:33:56.430Z,31.97
2019-04-21T08:35:08.519Z,30.99
2019-04-21T08:36:11.024Z,31.29
2019-04-21T08:36:51.602Z,32.39
2019-04-21T08:37:50.959Z,32.60
2019-04-21T08:38:55.512Z,31.89
2019-04-21T08:40:09.806Z,30.77
2019-04-21T08:40:52.879Z,32.68
2019-04-21T08:41:51.239Z,31.79
2019-04-21T08:42:51.645Z,32.47
2019-04-21T08:43:51.947Z,33.40
2019-04-21T08:44:52.468Z,31.09
2019-04-21T08:45:57.299Z,31.99
2019-04-21T08:46:52.836Z,30.29
2019-04-21T08:47:52.072Z,31.79
2019-04-21T08:48:57.950Z,32.92
2019-04-21T08:49:56.903Z,33.81
2019-04-21T08:50:53.843Z,32.22
2019-04-21T08:51:53.965Z,33.53
2019-04-21T08:52:57.044Z,32.43
2019-04-21T08:53:57.423Z,33.75
2019-04-21T08:54:55.818Z,33.25
2019-04-21T08:55:58.025Z,35.19
2019-04-21T08:56:54.691Z,36.36
2019-04-21T08:58:02.384Z,35.13
2019-04-21T08:58:56.068Z,34.51
2019-04-21T08:59:51.872Z,34.21
2019-04-21T09:00:56.581Z,33.00
2019-04-21T09:01:48.945Z,34.18
2019-04-21T09:02:57.611Z,35.08
2019-04-21T09:03:52.093Z,32.60
2019-04-21T09:04:54.179Z,33.58
2019-04-21T09:05:52.629Z,33.88
2019-04-21T09:07:51.031Z,32.37
2019-04-21T09:09:52.938Z,32.39
2019-04-21T09:10:56.054Z,31.29
2019-04-21T09:11:54.293Z,30.91
2019-04-21T09:12:49.046Z,34.36
2019-04-21T09:13:47.704Z,35.38
2019-04-21T09:14:50.666Z,35.38
2019-04-21T09:15:50.721Z,35.01
2019-04-21T09:16:47.560Z,35.71
2019-04-21T09:17:40.855Z,34.78
2019-04-21T09:18:47.274Z,35.35
2019-04-21T09:20:52.137Z,34.96
2019-04-21T09:20:55.274Z,33.47
2019-04-21T09:21:49.985Z,34.13
2019-04-21T09:22:52.562Z,33.42
2019-04-21T09:23:54.509Z,34.41
2019-04-21T09:24:51.921Z,33.61
2019-04-21T09:25:55.468Z,33.50
2019-04-21T09:26:48.099Z,34.11
2019-04-21T09:27:53.019Z,34.31
2019-04-21T09:28:46.415Z,32.52
2019-04-21T09:29:39.231Z,31.22
2019-04-21T09:30:39.582Z,31.40
2019-04-21T09:31:36.574Z,30.29
2019-04-21T09:32:33.435Z,30.40
2019-04-21T09:33:37.745Z,28.80
2019-04-21T09:34:36.991Z,28.58
2019-04-21T09:35:31.592Z,26.39
2019-04-21T09:36:37.730Z,25.99
2019-04-21T09:37:40.958Z,26.58
2019-04-21T09:38:37.155Z,26.48
2019-04-21T09:39:33.272Z,26.08
2019-04-21T09:40:37.250Z,25.48
2019-04-21T09:41:34.878Z,27.36
2019-04-21T09:42:38.389Z,27.26
2019-04-21T09:43:41.150Z,27.06
2019-04-21T09:44:36.742Z,28.05
2019-04-21T09:45:31.265Z,27.83
2019-04-21T09:46:34.153Z,26.08
2019-04-21T09:47:41.811Z,26.78
2019-04-21T09:48:44.287Z,26.88
2019-04-21T09:49:33.228Z,26.29
2019-04-21T09:50:30.202Z,24.91
2019-04-21T09:51:30.586Z,26.23
2019-04-21T09:52:37.553Z,26.03
2019-04-21T09:53:35.154Z,25.86
2019-04-21T09:54:34.021Z,26.54
2019-04-21T09:55:41.551Z,26.86
2019-04-21T09:56:40.681Z,27.26
2019-04-21T09:57:39.154Z,26.08
2019-04-21T09:58:38.674Z,27.21
2019-04-21T09:59:35.593Z,28.12
2019-04-21T10:00:43.548Z,28.30
2019-04-21T10:01:45.085Z,28.50
2019-04-21T10:02:37.563Z,28.22
2019-04-21T10:03:39.606Z,28.23
2019-04-21T10:04:31.199Z,29.35
2019-04-21T10:05:30.022Z,28.94
2019-04-21T10:06:30.652Z,28.32
2019-04-21T10:07:36.491Z,28.65
2019-04-21T10:08:31.859Z,28.25
2019-04-21T10:09:31.056Z,29.05
2019-04-21T10:10:29.965Z,30.05
2019-04-21T10:11:31.053Z,31.26
2019-04-21T10:12:30.661Z,29.25
2019-04-21T10:13:29.954Z,30.45
2019-04-21T10:14:30.935Z,29.84
2019-04-21T10:15:29.914Z,31.34
2019-04-21T10:16:29.975Z,30.22
2019-04-21T10:17:29.919Z,29.03
2019-04-21T10:18:29.905Z,30.94
2019-04-21T10:19:29.884Z,32.14
2019-04-21T10:20:30.899Z,29.34
2019-04-21T10:21:29.877Z,31.04
2019-04-21T10:22:30.995Z,31.44
2019-04-21T10:23:29.863Z,30.54
2019-04-21T10:24:30.667Z,31.34
2019-04-21T10:25:30.657Z,30.84
2019-04-21T10:26:30.548Z,31.26
2019-04-21T10:27:29.802Z,31.04
2019-04-21T10:28:30.982Z,31.24
2019-04-21T10:29:32.696Z,30.82
2019-04-21T10:30:30.730Z,30.52
2019-04-21T10:31:29.762Z,31.02
2019-04-21T10:32:30.216Z,31.21
2019-04-21T10:33:30.357Z,31.82
2019-04-21T10:34:29.706Z,32.61
2019-04-21T10:35:30.949Z,32.32
2019-04-21T10:36:30.949Z,33.23
2019-04-21T10:37:42.543Z,32.21
2019-04-21T10:38:40.125Z,30.43
2019-04-21T10:39:31.555Z,32.73
2019-04-21T10:40:32.567Z,31.74
2019-04-21T10:41:29.849Z,31.65
2019-04-21T10:42:29.686Z,32.97
2019-04-21T10:43:29.646Z,33.87
2019-04-21T10:44:29.637Z,32.17
2019-04-21T10:45:30.740Z,34.58
2019-04-21T10:46:30.730Z,33.56
2019-04-21T10:47:29.564Z,33.04
2019-04-21T10:48:31.722Z,32.64
2019-04-21T10:49:30.669Z,31.32
2019-04-21T10:50:29.550Z,30.93
2019-04-21T10:51:30.823Z,31.12
2019-04-21T10:52:31.260Z,31.12
2019-04-21T10:53:29.534Z,31.23
2019-04-21T10:54:42.049Z,31.44
2019-04-21T10:55:44.674Z,31.24
2019-04-21T10:56:36.325Z,32.44
2019-04-21T10:57:30.620Z,32.24
2019-04-21T10:58:29.478Z,32.24
2019-04-21T10:59:29.432Z,33.23
2019-04-21T11:00:30.115Z,34.23
2019-04-21T11:01:29.578Z,32.71
2019-04-21T11:02:30.625Z,30.41
2019-04-21T11:03:30.914Z,29.01
2019-04-21T11:04:33.724Z,28.94
2019-04-21T11:05:30.573Z,28.05
2019-04-21T11:06:30.800Z,28.84
2019-04-21T11:07:33.479Z,28.52
2019-04-21T11:08:35.698Z,28.52
2019-04-21T11:09:31.776Z,28.81
2019-04-21T11:10:29.781Z,28.51
2019-04-21T11:11:30.190Z,30.79
2019-04-21T11:12:29.321Z,30.10
2019-04-21T11:13:30.617Z,28.91
2019-04-21T11:14:29.423Z,29.31
2019-04-21T11:15:29.476Z,28.71
2019-04-21T11:16:29.346Z,31.10
2019-04-21T11:17:30.235Z,29.49
2019-04-21T11:18:30.069Z,29.01
2019-04-21T11:19:30.581Z,29.80
2019-04-21T11:20:29.220Z,29.19
2019-04-21T11:21:29.342Z,28.30
2019-04-21T11:22:30.663Z,28.59
2019-04-21T11:23:29.163Z,28.91
2019-04-21T11:24:29.257Z,29.01
2019-04-21T11:25:30.437Z,29.11
2019-04-21T11:26:29.860Z,29.99
2019-04-21T11:27:29.153Z,29.18
2019-04-21T11:28:29.350Z,29.00
2019-04-21T11:29:29.106Z,30.69
2019-04-21T11:30:29.765Z,28.88
2019-04-21T11:31:29.277Z,27.80
2019-04-21T11:32:29.075Z,28.01
2019-04-21T11:33:29.100Z,29.51
2019-04-21T11:34:29.314Z,27.51
2019-04-21T11:35:29.046Z,27.61
2019-04-21T11:36:29.241Z,28.59
2019-04-21T11:37:30.400Z,27.81
2019-04-21T11:38:31.810Z,28.82
2019-04-21T11:39:39.168Z,28.72
2019-04-21T11:40:29.988Z,28.92
2019-04-21T11:41:29.821Z,29.71
2019-04-21T11:42:30.066Z,29.30
2019-04-21T11:43:28.968Z,29.99
2019-04-21T11:44:29.120Z,29.19
2019-04-21T11:45:30.432Z,28.69
2019-04-21T11:46:28.909Z,29.68
2019-04-21T11:47:30.239Z,29.97
2019-04-21T11:48:30.260Z,30.25
2019-04-21T11:49:31.975Z,30.25
2019-04-21T11:50:28.873Z,29.14
2019-04-21T11:51:29.018Z,27.77
2019-04-21T11:52:29.184Z,29.28
2019-04-21T11:53:28.918Z,30.48
2019-04-21T11:54:28.900Z,28.58
2019-04-21T11:55:34.299Z,28.75
2019-04-21T11:56:30.500Z,28.45
2019-04-21T11:57:34.967Z,28.45
2019-04-21T11:58:29.963Z,28.96
2019-04-21T11:59:29.863Z,28.94
2019-04-21T12:00:29.498Z,27.56
2019-04-21T12:01:29.733Z,29.25
2019-04-21T12:02:29.768Z,30.55
2019-04-21T12:03:29.477Z,27.87
2019-04-21T12:04:29.529Z,27.78
2019-04-21T12:05:29.726Z,28.08
2019-04-21T12:06:35.100Z,29.28
2019-04-21T12:07:29.702Z,28.80
2019-04-21T12:08:37.231Z,29.28
2019-04-21T12:09:29.662Z,29.18
2019-04-21T12:10:29.307Z,30.87
2019-04-21T12:11:29.405Z,30.66
2019-04-21T12:12:29.617Z,31.35
2019-04-21T12:13:29.927Z,29.75
2019-04-21T12:14:30.148Z,28.37
2019-04-21T12:15:29.190Z,29.19
2019-04-21T12:16:28.836Z,29.18
2019-04-21T12:17:29.898Z,28.68
2019-04-21T12:18:30.140Z,28.87
2019-04-21T12:19:28.558Z,29.77
2019-04-21T12:20:28.664Z,28.97
2019-04-21T12:21:39.050Z,28.85
2019-04-21T12:22:32.520Z,28.24
2019-04-21T12:23:28.518Z,29.14
2019-04-21T12:24:31.146Z,29.15
2019-04-21T12:25:29.174Z,28.07
2019-04-21T12:26:28.483Z,28.77
2019-04-21T12:27:29.836Z,29.17
2019-04-21T12:28:30.097Z,27.95
2019-04-21T12:29:29.099Z,28.45
2019-04-21T12:30:29.421Z,26.26
2019-04-21T12:31:29.691Z,27.19
2019-04-21T12:32:28.400Z,27.28
2019-04-21T12:33:29.658Z,27.78
2019-04-21T12:34:28.380Z,26.88
2019-04-21T12:35:28.395Z,28.08
2019-04-21T12:36:29.521Z,28.18
2019-04-21T12:37:28.926Z,28.47
2019-04-21T12:38:38.073Z,28.68
2019-04-21T12:39:30.539Z,29.47
2019-04-21T12:40:28.462Z,31.07
2019-04-21T12:41:28.782Z,28.37
2019-04-21T12:42:28.291Z,30.87
2019-04-21T12:43:28.580Z,29.27
2019-04-21T12:44:29.455Z,28.36
2019-04-21T12:45:28.393Z,29.15
2019-04-21T12:46:28.253Z,27.57
2019-04-21T12:47:28.250Z,28.17
2019-04-21T12:48:29.520Z,28.78
2019-04-21T12:49:29.651Z,28.67
2019-04-21T12:50:28.228Z,29.15
2019-04-21T12:51:28.202Z,28.28
2019-04-21T12:52:29.408Z,29.97
2019-04-21T12:53:29.602Z,30.87
2019-04-21T12:54:28.168Z,30.85
2019-04-21T12:55:31.905Z,28.44
2019-04-21T12:56:29.489Z,26.94
2019-04-21T12:57:30.247Z,26.96
2019-04-21T12:58:29.103Z,26.96
2019-04-21T12:59:29.661Z,27.06
2019-04-21T13:00:28.958Z,28.14
2019-04-21T13:01:28.091Z,28.53
2019-04-21T13:02:29.326Z,26.23
2019-04-21T13:03:28.689Z,27.23
2019-04-21T13:04:29.327Z,27.53
2019-04-21T13:05:29.516Z,27.02
2019-04-21T13:06:28.019Z,25.92
2019-04-21T13:07:28.010Z,26.03
2019-04-21T13:08:29.283Z,25.15
2019-04-21T13:09:31.731Z,25.85
2019-04-21T13:10:28.438Z,26.04
2019-04-21T13:11:28.852Z,26.86
2019-04-21T13:12:28.979Z,26.16
2019-04-21T13:13:28.174Z,26.45
2019-04-21T13:14:27.934Z,25.05
2019-04-21T13:15:29.243Z,25.96
2019-04-21T13:16:27.926Z,27.64
2019-04-21T13:17:27.921Z,28.04
2019-04-21T13:18:29.034Z,26.94
2019-04-21T13:19:27.890Z,26.53
2019-04-21T13:20:27.897Z,25.93
2019-04-21T13:21:28.011Z,26.22
2019-04-21T13:22:28.057Z,24.81
2019-04-21T13:23:28.918Z,24.02
2019-04-21T13:24:27.869Z,26.22
2019-04-21T13:25:27.957Z,23.04
2019-04-21T13:26:37.244Z,21.64
2019-04-21T13:27:28.946Z,24.33
2019-04-21T13:28:28.346Z,23.65
2019-04-21T13:29:28.185Z,24.95
2019-04-21T13:30:28.410Z,24.95
2019-04-21T13:31:27.744Z,25.95
2019-04-21T13:32:28.841Z,24.93
2019-04-21T13:33:29.200Z,25.04
2019-04-21T13:34:28.327Z,24.75
2019-04-21T13:35:28.908Z,25.04
2019-04-21T13:36:27.746Z,23.74
2019-04-21T13:37:27.803Z,24.02
2019-04-21T13:38:36.376Z,26.72
2019-04-21T13:40:45.074Z,24.85
2019-04-21T13:41:41.982Z,24.74
2019-04-21T13:42:36.694Z,25.23
2019-04-21T13:43:29.352Z,25.45
2019-04-21T13:44:28.805Z,24.65
2019-04-21T13:45:27.842Z,25.05
2019-04-21T13:46:28.844Z,24.65
2019-04-21T13:47:28.242Z,25.45